Time;durP1;ratioP1;P1;durP2;ratioP2;P2;SDS_P1;SDS_P2;PMS_P1;PMS_P2;Temp;Humidity;BMP_temperature;BMP_pressure;BME280_temperature;BME280_humidity;BME280_pressure;Samples;Min_cycle;Max_cycle;Signal;HPM_P1;HPM_P2
2023/04/13 00:00:24;;;;;;;4.83;1.10;;;;;6.40;99006.00;;;;9875579;29;20239;-77
2023/04/13 00:05:27;;;;;;;4.93;1.10;;;;;6.30;98994.00;;;;9865340;29;20883;-78
2023/04/13 00:10:30;;;;;;;3.97;1.30;;;;;6.30;99000.00;;;;9854268;29;20750;-78
2023/04/13 00:15:33;;;;;;;4.50;1.00;;;;;6.30;99010.00;;;;9853939;29;20548;-77
2023/04/13 00:20:36;;;;;;;8.23;1.30;;;;;6.30;99033.00;;;;9871743;29;20691;-78
2023/04/13 00:25:38;;;;;;;6.83;1.87;;;;;6.30;99034.00;;;;9862327;29;20211;-77
2023/04/13 00:30:40;;;;;;;3.30;1.23;;;;;6.40;99038.00;;;;9837488;29;20227;-78
2023/04/13 00:35:43;;;;;;;7.70;1.50;;;;;6.40;99034.00;;;;9838375;29;20211;-78
2023/04/13 00:40:44;;;;;;;2.60;0.83;;;;;6.40;99050.00;;;;9867682;29;20229;-78
2023/04/13 00:45:47;;;;;;;3.63;1.07;;;;;6.30;99036.00;;;;9868311;29;20314;-78
2023/04/13 00:50:49;;;;;;;3.77;1.07;;;;;6.30;99052.00;;;;9882637;29;20661;-78
2023/04/13 00:55:52;;;;;;;2.77;0.97;;;;;6.30;99050.00;;;;9870478;29;20230;-79
2023/04/13 01:00:54;;;;;;;8.40;1.47;;;;;6.30;99060.00;;;;9855067;30;20250;-78
2023/04/13 01:06:19;;;;;;;3.43;1.20;;;;;6.30;99031.00;;;;9862623;29;20293;-78
2023/04/13 01:11:29;;;;;;;4.67;0.90;;;;;6.30;99037.00;;;;9918774;29;20227;-78
2023/04/13 01:16:38;;;;;;;7.37;1.50;;;;;6.40;99036.00;;;;9854067;30;20462;-78
2023/04/13 01:21:42;;;;;;;5.50;1.30;;;;;6.40;99043.00;;;;9896353;29;20210;-79
2023/04/13 01:26:47;;;;;;;9.10;1.67;;;;;6.40;99038.00;;;;9867042;29;20265;-78
2023/04/13 01:31:53;;;;;;;4.87;1.40;;;;;6.40;99042.00;;;;9840797;29;20223;-79
2023/04/13 01:36:55;;;;;;;3.77;1.10;;;;;6.40;99035.00;;;;9838484;29;20207;-78
2023/04/13 01:41:58;;;;;;;7.83;1.33;;;;;6.40;99050.00;;;;9867299;29;20895;-78
2023/04/13 01:47:14;;;;;;;6.83;1.43;;;;;6.40;99071.00;;;;9849796;29;20204;-79
2023/04/13 01:52:26;;;;;;;6.13;1.60;;;;;6.40;99097.00;;;;9814884;29;20231;-78
2023/04/13 01:57:30;;;;;;;2.07;0.80;;;;;6.30;99091.00;;;;9850719;29;20233;-79
2023/04/13 02:02:36;;;;;;;4.90;0.80;;;;;6.20;99105.00;;;;9850605;29;20235;-78
2023/04/13 02:07:40;;;;;;;2.10;0.90;;;;;6.10;99112.00;;;;9864909;29;20283;-78
2023/04/13 02:12:43;;;;;;;2.97;0.90;;;;;6.10;99129.00;;;;9864054;29;20235;-79
2023/04/13 02:17:45;;;;;;;4.97;0.90;;;;;6.10;99142.00;;;;9853654;29;20531;-78
2023/04/13 02:22:48;;;;;;;2.50;0.60;;;;;6.10;99137.00;;;;9893330;29;20196;-79
2023/04/13 02:27:50;;;;;;;3.67;0.80;;;;;6.20;99144.00;;;;9850276;29;20701;-79
2023/04/13 02:32:53;;;;;;;3.13;0.73;;;;;6.20;99150.00;;;;9896425;29;20219;-78
2023/04/13 02:37:55;;;;;;;3.07;0.70;;;;;6.20;99158.00;;;;9896216;29;20220;-79
2023/04/13 02:42:58;;;;;;;1.83;0.90;;;;;6.10;99167.00;;;;9866085;29;20286;-80
2023/04/13 02:48:03;;;;;;;7.73;1.00;;;;;6.00;99179.00;;;;9865492;29;20466;-78
2023/04/13 02:53:06;;;;;;;2.63;0.90;;;;;5.90;99178.00;;;;9836033;29;20249;-79
2023/04/13 02:58:11;;;;;;;2.13;0.73;;;;;5.80;99199.00;;;;9863551;29;20207;-79
2023/04/13 03:03:19;;;;;;;2.33;1.00;;;;;5.70;99198.00;;;;9850072;29;20306;-80
2023/04/13 03:08:24;;;;;;;7.13;1.23;;;;;5.70;99206.00;;;;9906102;29;20674;-80
2023/04/13 03:13:38;;;;;;;3.23;1.00;;;;;5.70;99220.00;;;;9835069;29;20223;-79
2023/04/13 03:18:40;;;;;;;6.60;1.33;;;;;5.60;99224.00;;;;9843515;29;20274;-79
2023/04/13 03:23:44;;;;;;;3.07;1.10;;;;;5.60;99227.00;;;;9835420;29;20706;-81
2023/04/13 03:28:48;;;;;;;1.60;0.90;;;;;5.60;99240.00;;;;9863987;29;20229;-82
2023/04/13 03:33:51;;;;;;;2.07;1.00;;;;;5.50;99257.00;;;;9848836;29;20436;-79
2023/04/13 03:38:54;;;;;;;4.40;1.30;;;;;5.50;99263.00;;;;9847757;29;20200;-81
2023/04/13 03:43:58;;;;;;;3.27;1.03;;;;;5.50;99274.00;;;;9846183;29;20215;-80
2023/04/13 03:49:06;;;;;;;7.10;1.40;;;;;5.40;99283.00;;;;9861244;29;20703;-79
2023/04/13 03:54:08;;;;;;;3.53;1.10;;;;;5.40;99286.00;;;;9859422;29;20313;-81
2023/04/13 03:59:10;;;;;;;2.33;0.80;;;;;5.30;99279.00;;;;9846384;29;20227;-82
2023/04/13 04:04:12;;;;;;;4.90;1.20;;;;;5.20;99298.00;;;;9846023;29;20264;-82
2023/04/13 04:09:15;;;;;;;2.20;0.60;;;;;5.20;99299.00;;;;9909653;29;20279;-81
2023/04/13 04:14:22;;;;;;;4.47;0.90;;;;;5.20;99319.00;;;;9873210;29;20219;-81
2023/04/13 04:19:31;;;;;;;5.00;1.57;;;;;5.20;99319.00;;;;9857584;29;20584;-81
2023/04/13 04:24:33;;;;;;;7.77;1.40;;;;;5.20;99325.00;;;;9849403;29;20216;-81
2023/04/13 04:29:35;;;;;;;8.10;1.57;;;;;5.20;99318.00;;;;9835851;30;20208;-81
2023/04/13 04:34:51;;;;;;;5.83;1.30;;;;;5.20;99329.00;;;;9829322;29;20267;-81
2023/04/13 04:39:56;;;;;;;5.90;1.43;;;;;5.30;99341.00;;;;9872481;29;20195;-81
2023/04/13 04:45:00;;;;;;;5.33;1.40;;;;;5.40;99348.00;;;;9873220;29;20664;-81
2023/04/13 04:50:04;;;;;;;5.60;1.60;;;;;5.60;99364.00;;;;9870919;29;20306;-82
2023/04/13 04:55:12;;;;;;;4.27;1.70;;;;;5.80;99370.00;;;;9873047;29;20700;-80
2023/04/13 05:00:17;;;;;;;10.30;2.53;;;;;5.90;99373.00;;;;9878069;29;20206;-81
2023/04/13 05:05:30;;;;;;;4.23;1.50;;;;;5.90;99385.00;;;;9890137;29;20201;-81
2023/04/13 05:10:45;;;;;;;7.33;1.57;;;;;5.90;99383.00;;;;9882429;29;20234;-82
2023/04/13 05:15:47;;;;;;;7.87;1.67;;;;;6.00;99379.00;;;;9849258;29;20218;-82
2023/04/13 05:20:52;;;;;;;7.10;1.90;;;;;6.10;99383.00;;;;9862016;29;20500;-81
2023/04/13 05:25:55;;;;;;;7.83;1.90;;;;;6.20;99389.00;;;;9866727;29;20466;-81
2023/04/13 05:31:01;;;;;;;8.73;2.00;;;;;6.30;99400.00;;;;9851444;29;20234;-81
2023/04/13 05:36:07;;;;;;;8.60;2.53;;;;;6.50;99403.00;;;;9865464;29;20208;-82
2023/04/13 05:41:11;;;;;;;8.00;2.57;;;;;6.70;99411.00;;;;9866196;29;20284;-81
2023/04/13 05:46:14;;;;;;;8.50;1.70;;;;;7.00;99414.00;;;;9835597;29;20215;-81
2023/04/13 05:51:18;;;;;;;6.77;1.83;;;;;7.20;99423.00;;;;9855421;29;20492;-81
2023/04/13 05:56:28;;;;;;;9.73;2.27;;;;;7.30;99428.00;;;;9863427;29;20239;-81
2023/04/13 06:01:34;;;;;;;15.80;2.77;;;;;7.30;99441.00;;;;9864668;29;20215;-81
2023/04/13 06:06:36;;;;;;;14.30;2.93;;;;;7.50;99443.00;;;;9877953;29;20631;-81
2023/04/13 06:11:40;;;;;;;15.63;3.93;;;;;7.60;99456.00;;;;9901314;29;20350;-81
2023/04/13 06:16:43;;;;;;;13.43;2.77;;;;;7.80;99446.00;;;;9818021;30;20204;-79
2023/04/13 06:21:46;;;;;;;15.43;2.83;;;;;8.00;99457.00;;;;9877812;29;20199;-78
2023/04/13 06:26:48;;;;;;;11.20;2.50;;;;;8.10;99459.00;;;;9863181;29;20214;-78
2023/04/13 06:31:50;;;;;;;12.57;2.90;;;;;8.30;99469.00;;;;9878415;29;20235;-81
2023/04/13 06:36:54;;;;;;;15.73;3.03;;;;;8.80;99486.00;;;;9891978;29;20233;-78
2023/04/13 06:41:59;;;;;;;21.83;3.50;;;;;9.20;99488.00;;;;9847342;29;20317;-78
2023/04/13 06:47:20;;;;;;;16.80;3.40;;;;;9.40;99504.00;;;;9848502;29;20208;-78
2023/04/13 06:52:23;;;;;;;14.87;4.00;;;;;9.50;99501.00;;;;9861010;29;20238;-80
2023/04/13 06:57:25;;;;;;;12.97;2.93;;;;;9.90;99506.00;;;;9860010;29;20599;-81
2023/04/13 07:02:27;;;;;;;14.00;3.33;;;;;10.10;99519.00;;;;9824011;30;20208;-81
2023/04/13 07:07:32;;;;;;;9.07;2.70;;;;;10.30;99519.00;;;;9879670;29;20290;-80
2023/04/13 07:12:36;;;;;;;10.27;2.37;;;;;10.60;99525.00;;;;9852759;29;20250;-81
2023/04/13 07:17:39;;;;;;;11.33;2.70;;;;;10.50;99530.00;;;;9838181;30;20228;-80
2023/04/13 07:22:42;;;;;;;11.43;2.70;;;;;10.90;99543.00;;;;9825622;29;20208;-79
2023/04/13 07:27:44;;;;;;;14.67;3.20;;;;;11.10;99535.00;;;;9831873;29;20876;-80
2023/04/13 07:32:46;;;;;;;12.57;2.73;;;;;11.30;99549.00;;;;9861768;29;20250;-79
2023/04/13 07:37:50;;;;;;;8.60;3.10;;;;;11.40;99565.00;;;;9831420;29;20203;-80
2023/04/13 07:42:56;;;;;;;8.47;2.57;;;;;10.90;99575.00;;;;9846029;29;20209;-81
2023/04/13 07:47:59;;;;;;;9.87;2.83;;;;;10.90;99585.00;;;;9845364;29;20207;-79
2023/04/13 07:53:02;;;;;;;15.23;2.70;;;;;11.40;99585.00;;;;9876126;29;20234;-78
2023/04/13 07:58:04;;;;;;;13.57;2.37;;;;;12.20;99604.00;;;;9860951;29;20624;-79
2023/04/13 08:03:06;;;;;;;11.83;2.37;;;;;12.10;99609.00;;;;9874493;29;20204;-78
2023/04/13 08:08:10;;;;;;;13.60;2.33;;;;;12.00;99612.00;;;;9859860;29;20203;-78
2023/04/13 08:13:14;;;;;;;12.00;3.27;;;;;12.40;99603.00;;;;9889153;29;20226;-79
2023/04/13 08:18:17;;;;;;;9.57;2.13;;;;;12.30;99624.00;;;;9890338;29;20224;-78
2023/04/13 08:23:21;;;;;;;8.93;2.83;;;;;12.40;99629.00;;;;9845964;29;20212;-78
2023/04/13 08:28:24;;;;;;;7.90;2.50;;;;;12.90;99624.00;;;;9852799;29;20216;-79
2023/04/13 08:33:26;;;;;;;9.43;2.30;;;;;12.80;99634.00;;;;9827784;29;20227;-79
2023/04/13 08:38:28;;;;;;;13.63;2.30;;;;;12.50;99637.00;;;;9860482;29;20199;-78
2023/04/13 08:43:37;;;;;;;9.93;2.63;;;;;13.10;99643.00;;;;9873719;29;20204;-79
2023/04/13 08:48:43;;;;;;;8.37;2.40;;;;;12.50;99647.00;;;;9857781;29;20215;-79
2023/04/13 08:53:58;;;;;;;13.43;2.60;;;;;13.00;99645.00;;;;9847199;29;20227;-79
2023/04/13 08:59:07;;;;;;;10.93;2.43;;;;;15.00;99646.00;;;;9853332;29;20280;-79
2023/04/13 09:04:11;;;;;;;10.20;2.87;;;;;14.90;99662.00;;;;9867038;29;20312;-79
2023/04/13 09:09:19;;;;;;;12.20;3.07;;;;;15.80;99654.00;;;;9840979;30;20232;-80
2023/04/13 09:14:22;;;;;;;9.90;2.22;;;;;15.10;99663.00;;;;9829279;30;20240;-79
2023/04/13 09:19:31;;;;;;;11.88;2.45;;;;;16.60;99678.00;;;;9890222;29;20269;-79
2023/04/13 09:24:40;;;;;;;10.43;2.38;;;;;14.90;99687.00;;;;9879912;29;20290;-79
2023/04/13 09:29:54;;;;;;;12.17;5.47;;;;;13.40;99684.00;;;;9865530;29;20204;-79
2023/04/13 09:34:58;;;;;;;9.77;3.73;;;;;14.20;99696.00;;;;9865428;29;20280;-79
2023/04/13 09:40:13;;;;;;;9.13;2.67;;;;;14.40;99698.00;;;;9874246;29;20199;-77
2023/04/13 09:45:15;;;;;;;13.77;4.07;;;;;13.50;99707.00;;;;9859747;29;20525;-78
2023/04/13 09:50:23;;;;;;;10.10;3.00;;;;;13.60;99704.00;;;;9858077;29;20794;-76
2023/04/13 09:55:26;;;;;;;7.23;1.87;;;;;16.00;99696.00;;;;9860420;29;20291;-78
2023/04/13 10:00:30;;;;;;;12.03;3.00;;;;;15.70;99713.00;;;;9837702;29;20771;-78
2023/04/13 10:05:33;;;;;;;9.57;2.50;;;;;15.10;99724.00;;;;9858785;29;20679;-77
2023/04/13 10:10:45;;;;;;;8.80;1.97;;;;;13.90;99729.00;;;;9834101;29;20227;-77
2023/04/13 10:16:08;;;;;;;14.40;2.47;;;;;12.90;99740.00;;;;9852771;29;20457;-77
2023/04/13 10:21:11;;;;;;;8.27;2.67;;;;;12.50;99748.00;;;;9843192;29;20253;-77
2023/04/13 10:26:13;;;;;;;10.03;1.80;;;;;12.30;99754.00;;;;9856666;29;20216;-77
2023/04/13 10:31:15;;;;;;;10.20;2.60;;;;;13.00;99744.00;;;;9836504;29;20255;-77
2023/04/13 10:36:17;;;;;;;8.27;2.33;;;;;15.80;99745.00;;;;9836305;29;20308;-77
2023/04/13 10:41:24;;;;;;;7.93;2.25;;;;;18.20;99754.00;;;;9860215;29;20211;-79
2023/04/13 10:46:27;;;;;;;6.40;1.75;;;;;19.70;99754.00;;;;9827843;29;20212;-77
2023/04/13 10:51:40;;;;;;;4.43;2.00;;;;;20.40;99764.00;;;;9845665;29;20824;-79
2023/04/13 10:56:43;;;;;;;11.90;2.53;;;;;18.10;99786.00;;;;9820814;29;20234;-78
2023/04/13 11:01:46;;;;;;;5.07;1.48;;;;;16.70;99792.00;;;;9836079;29;20872;-78
2023/04/13 11:06:48;;;;;;;7.43;1.80;;;;;16.60;99778.00;;;;9848396;29;20207;-77
2023/04/13 11:11:50;;;;;;;5.30;1.58;;;;;18.30;99790.00;;;;9854484;29;20481;-78
2023/04/13 11:16:52;;;;;;;10.95;2.17;;;;;17.70;99787.00;;;;9848459;29;20565;-77
2023/04/13 11:22:00;;;;;;;5.28;1.75;;;;;19.00;99793.00;;;;9861759;29;20198;-77
2023/04/13 11:27:02;;;;;;;6.88;2.42;;;;;19.20;99794.00;;;;9846670;29;20214;-77
2023/04/13 11:32:04;;;;;;;8.43;2.20;;;;;18.70;99805.00;;;;9862236;29;20220;-78
2023/04/13 11:37:06;;;;;;;7.28;1.90;;;;;18.90;99813.00;;;;9853146;29;20219;-79
2023/04/13 11:42:09;;;;;;;5.13;1.88;;;;;18.10;99831.00;;;;9828122;29;20732;-78
2023/04/13 11:47:14;;;;;;;9.98;2.22;;;;;16.40;99833.00;;;;9867899;29;20211;-78
2023/04/13 11:52:16;;;;;;;7.63;2.47;;;;;18.30;99817.00;;;;9870124;29;20318;-80
2023/04/13 11:57:18;;;;;;;5.00;1.60;;;;;19.80;99824.00;;;;9833670;29;20235;-81
2023/04/13 12:02:29;;;;;;;5.55;2.17;;;;;21.20;99823.00;;;;9849889;29;20220;-80
2023/04/13 12:07:41;;;;;;;5.47;1.45;;;;;21.20;99827.00;;;;9860492;29;20219;-80
2023/04/13 12:12:44;;;;;;;6.80;2.17;;;;;21.80;99812.00;;;;9858195;29;20331;-80
2023/04/13 12:18:00;;;;;;;5.22;1.58;;;;;22.30;99822.00;;;;9871512;29;20196;-81
2023/04/13 12:23:24;;;;;;;5.35;1.55;;;;;21.10;99831.00;;;;9863388;29;20203;-80
2023/04/13 12:28:29;;;;;;;4.00;1.73;;;;;18.90;99827.00;;;;9851216;30;20211;-80
2023/04/13 12:33:35;;;;;;;4.32;1.58;;;;;17.60;99835.00;;;;9867107;29;20708;-80
2023/04/13 12:38:38;;;;;;;4.00;1.48;;;;;18.90;99832.00;;;;9882827;29;20268;-79
2023/04/13 12:43:39;;;;;;;5.35;1.52;;;;;19.40;99830.00;;;;9897201;29;20350;-80
2023/04/13 12:48:42;;;;;;;5.07;1.40;;;;;19.90;99834.00;;;;9855651;29;20311;-80
2023/04/13 12:53:44;;;;;;;3.17;1.70;;;;;20.10;99842.00;;;;9885321;29;20309;-80
2023/04/13 12:58:47;;;;;;;3.85;1.33;;;;;19.80;99842.00;;;;9869791;29;20215;-80
2023/04/13 13:03:49;;;;;;;4.13;1.20;;;;;19.80;99842.00;;;;9830449;30;20212;-81
2023/04/13 13:08:51;;;;;;;3.92;0.98;;;;;19.50;99846.00;;;;9837940;30;20217;-80
2023/04/13 13:13:53;;;;;;;7.90;1.42;;;;;19.40;99835.00;;;;9816529;30;20232;-80
2023/04/13 13:18:55;;;;;;;4.68;1.23;;;;;20.60;99837.00;;;;9882968;29;20215;-80
2023/04/13 13:23:58;;;;;;;2.40;0.93;;;;;21.70;99848.00;;;;9883841;29;20203;-80
2023/04/13 13:29:00;;;;;;;5.25;1.55;;;;;21.00;99839.00;;;;9868974;29;20200;-80
2023/04/13 13:34:02;;;;;;;3.75;1.27;;;;;20.90;99864.00;;;;9850045;29;20256;-80
2023/04/13 13:39:06;;;;;;;4.90;1.60;;;;;19.80;99877.00;;;;9843535;30;20504;-80
2023/04/13 13:44:08;;;;;;;2.58;1.15;;;;;17.10;99863.00;;;;9843340;29;20222;-79
2023/04/13 13:49:10;;;;;;;4.75;1.10;;;;;15.90;99861.00;;;;9858047;29;20269;-79
2023/04/13 13:54:25;;;;;;;5.28;1.60;;;;;18.50;99832.00;;;;9844808;29;20231;-80
2023/04/13 13:59:27;;;;;;;7.13;1.52;;;;;24.60;99846.00;;;;9866259;29;20311;-80
2023/04/13 14:04:29;;;;;;;3.78;1.52;;;;;18.50;99880.00;;;;9836675;29;20279;-80
2023/04/13 14:09:31;;;;;;;4.75;1.20;;;;;23.50;99842.00;;;;9889515;29;20214;-81
2023/04/13 14:14:33;;;;;;;5.70;1.67;;;;;20.30;99879.00;;;;9890455;29;20234;-79
2023/04/13 14:19:35;;;;;;;3.85;1.40;;;;;24.00;99852.00;;;;9849721;29;20311;-81
2023/04/13 14:24:37;;;;;;;4.88;1.42;;;;;20.80;99891.00;;;;9863990;29;20572;-80
2023/04/13 14:29:39;;;;;;;4.32;1.77;;;;;17.30;99898.00;;;;9879471;29;20211;-79
2023/04/13 14:34:44;;;;;;;6.40;1.40;;;;;21.10;99873.00;;;;9815357;30;20323;-81
2023/04/13 14:39:46;;;;;;;6.32;1.50;;;;;18.60;99901.00;;;;9853221;29;20298;-80
2023/04/13 14:44:50;;;;;;;9.02;1.55;;;;;17.70;99883.00;;;;9873554;29;20732;-79
2023/04/13 14:49:52;;;;;;;4.82;1.30;;;;;16.10;99894.00;;;;9875765;29;20260;-79
2023/04/13 14:54:55;;;;;;;9.60;1.77;;;;;15.10;99896.00;;;;9885585;29;20238;-79
2023/04/13 14:59:57;;;;;;;9.85;2.33;;;;;17.60;99867.00;;;;9834397;29;20300;-79
2023/04/13 15:05:00;;;;;;;5.78;1.55;;;;;23.10;99871.00;;;;9846718;29;20204;-80
2023/04/13 15:10:03;;;;;;;4.78;1.63;;;;;24.10;99868.00;;;;9854531;29;20331;-81
2023/04/13 15:15:06;;;;;;;5.82;1.70;;;;;23.30;99900.00;;;;9865550;29;20280;-81
2023/04/13 15:20:09;;;;;;;4.70;1.38;;;;;20.00;99894.00;;;;9856975;30;20230;-80
2023/04/13 15:25:11;;;;;;;8.02;1.98;;;;;18.40;99905.00;;;;9874901;29;20227;-79
2023/04/13 15:30:13;;;;;;;5.00;1.40;;;;;17.10;99909.00;;;;9850123;29;20310;-80
2023/04/13 15:35:15;;;;;;;5.68;1.40;;;;;15.80;99907.00;;;;9863088;29;20256;-80
2023/04/13 15:40:21;;;;;;;4.32;1.52;;;;;16.10;99903.00;;;;9863202;29;20271;-79
2023/04/13 15:45:23;;;;;;;4.75;1.48;;;;;17.10;99906.00;;;;9878392;29;20211;-80
2023/04/13 15:50:25;;;;;;;5.25;1.15;;;;;16.10;99919.00;;;;9887660;29;20207;-79
2023/04/13 15:55:27;;;;;;;4.70;1.80;;;;;15.10;99916.00;;;;9853357;29;20244;-80
2023/04/13 16:00:30;;;;;;;6.67;1.40;;;;;14.70;99926.00;;;;9827954;30;20207;-79
2023/04/13 16:05:32;;;;;;;3.00;0.90;;;;;14.70;99936.00;;;;9879027;29;20702;-80
2023/04/13 16:10:35;;;;;;;3.00;1.20;;;;;14.40;99947.00;;;;9880813;29;20212;-80
2023/04/13 16:15:38;;;;;;;7.47;1.10;;;;;13.80;99946.00;;;;9838855;30;20302;-79
2023/04/13 16:20:41;;;;;;;7.37;2.10;;;;;13.10;99968.00;;;;9845297;30;20541;-80
2023/04/13 16:25:43;;;;;;;8.03;2.43;;;;;12.80;99976.00;;;;9842334;29;20259;-81
2023/04/13 16:30:45;;;;;;;5.90;2.20;;;;;12.60;99985.00;;;;9853596;30;20212;-81
2023/04/13 16:35:47;;;;;;;6.80;2.13;;;;;12.50;99980.00;;;;9878044;29;20292;-79
2023/04/13 16:40:49;;;;;;;6.17;1.83;;;;;12.40;99991.00;;;;9875040;29;20214;-80
2023/04/13 16:45:51;;;;;;;5.43;1.90;;;;;12.50;99991.00;;;;9878659;29;20446;-79
2023/04/13 16:50:57;;;;;;;5.27;2.30;;;;;12.80;100007.00;;;;9880054;29;20243;-79
2023/04/13 16:56:00;;;;;;;8.83;2.67;;;;;12.80;100002.00;;;;9874294;29;20234;-79
2023/04/13 17:01:03;;;;;;;6.60;2.20;;;;;12.70;100012.00;;;;9846482;29;20207;-79
2023/04/13 17:06:05;;;;;;;5.37;1.83;;;;;12.80;100026.00;;;;9898811;29;20222;-79
2023/04/13 17:11:08;;;;;;;3.43;1.37;;;;;12.70;100016.00;;;;9882202;29;20719;-80
2023/04/13 17:16:10;;;;;;;3.40;1.50;;;;;12.70;100016.00;;;;9879231;29;20504;-80
2023/04/13 17:21:12;;;;;;;5.93;1.30;;;;;12.30;100012.00;;;;9865476;29;20265;-79
2023/04/13 17:26:14;;;;;;;3.47;1.23;;;;;11.80;100009.00;;;;9843681;30;20204;-80
2023/04/13 17:31:16;;;;;;;5.23;1.30;;;;;11.30;100023.00;;;;9867547;29;20422;-79
2023/04/13 17:36:21;;;;;;;5.20;1.53;;;;;10.90;100028.00;;;;9870985;29;20228;-79
2023/04/13 17:41:23;;;;;;;2.77;1.10;;;;;10.60;100014.00;;;;9845034;29;20236;-81
2023/04/13 17:46:28;;;;;;;3.20;1.17;;;;;10.40;100019.00;;;;9866744;29;20211;-80
2023/04/13 17:51:31;;;;;;;5.93;1.60;;;;;10.10;100028.00;;;;9876225;29;20722;-82
2023/04/13 17:56:33;;;;;;;4.90;1.20;;;;;10.00;100042.00;;;;9868537;29;20266;-80
2023/04/13 18:01:35;;;;;;;5.37;1.30;;;;;9.80;100049.00;;;;9853663;29;20220;-82
2023/04/13 18:06:38;;;;;;;5.20;1.30;;;;;9.70;100050.00;;;;9869548;29;20203;-82
2023/04/13 18:11:40;;;;;;;6.80;2.00;;;;;9.60;100066.00;;;;9883547;29;20207;-82
2023/04/13 18:16:42;;;;;;;5.67;1.37;;;;;9.50;100077.00;;;;9840733;30;20277;-81
2023/04/13 18:21:44;;;;;;;5.87;1.50;;;;;9.40;100083.00;;;;9830583;30;20253;-81
2023/04/13 18:26:47;;;;;;;4.20;1.53;;;;;9.30;100088.00;;;;9855876;29;20210;-81
2023/04/13 18:31:49;;;;;;;5.47;1.40;;;;;9.30;100107.00;;;;9821794;30;20350;-82
2023/04/13 18:36:51;;;;;;;4.43;1.47;;;;;9.20;100116.00;;;;9832337;30;20219;-82
2023/04/13 18:41:53;;;;;;;4.10;1.70;;;;;9.10;100119.00;;;;9864570;29;20219;-82
2023/04/13 18:46:55;;;;;;;5.57;1.53;;;;;9.00;100125.00;;;;9843972;29;20796;-81
2023/04/13 18:51:57;;;;;;;5.73;1.23;;;;;8.90;100134.00;;;;9877705;29;20418;-81
2023/04/13 18:56:59;;;;;;;2.50;1.20;;;;;8.80;100147.00;;;;9882082;29;20516;-80
2023/04/13 19:02:01;;;;;;;5.20;1.93;;;;;8.70;100157.00;;;;9866651;29;20272;-81
2023/04/13 19:07:07;;;;;;;4.27;1.40;;;;;8.50;100155.00;;;;9888401;29;20630;-82
2023/04/13 19:12:09;;;;;;;6.03;1.47;;;;;8.30;100162.00;;;;9858394;29;20236;-81
2023/04/13 19:17:15;;;;;;;6.07;1.63;;;;;8.20;100162.00;;;;9835175;30;20831;-81
2023/04/13 19:22:18;;;;;;;3.80;1.30;;;;;8.10;100172.00;;;;9852066;29;20258;-81
2023/04/13 19:27:21;;;;;;;7.07;1.50;;;;;8.00;100170.00;;;;9850259;29;20211;-81
2023/04/13 19:32:23;;;;;;;3.40;1.50;;;;;7.80;100174.00;;;;9863265;29;20270;-80
2023/04/13 19:37:25;;;;;;;7.83;1.70;;;;;7.80;100190.00;;;;9839505;30;20208;-82
2023/04/13 19:42:27;;;;;;;3.40;1.50;;;;;7.70;100184.00;;;;9831762;30;20943;-82
2023/04/13 19:47:29;;;;;;;5.97;1.20;;;;;7.60;100205.00;;;;9878056;29;20294;-81
2023/04/13 19:52:32;;;;;;;7.70;1.73;;;;;7.50;100204.00;;;;9879659;29;20314;-81
2023/04/13 19:57:35;;;;;;;4.87;2.63;;;;;7.40;100213.00;;;;9880074;29;20227;-80
2023/04/13 20:02:37;;;;;;;4.83;1.50;;;;;7.30;100224.00;;;;9865156;29;20204;-80
2023/04/13 20:07:41;;;;;;;3.60;1.67;;;;;7.20;100220.00;;;;9894249;29;20257;-81
2023/04/13 20:12:43;;;;;;;6.37;1.60;;;;;7.00;100220.00;;;;9841002;30;20318;-81
2023/04/13 20:17:46;;;;;;;7.03;1.53;;;;;6.90;100223.00;;;;9838467;29;20679;-82
2023/04/13 20:22:49;;;;;;;6.90;1.80;;;;;6.80;100227.00;;;;9837253;29;20326;-81
2023/04/13 20:27:51;;;;;;;6.43;1.90;;;;;6.80;100227.00;;;;9859755;29;20215;-81
2023/04/13 20:32:53;;;;;;;5.43;1.90;;;;;6.70;100231.00;;;;9861994;29;20225;-81
2023/04/13 20:37:58;;;;;;;5.70;2.10;;;;;6.70;100237.00;;;;9847901;29;20216;-81
2023/04/13 20:43:02;;;;;;;7.53;2.83;;;;;6.60;100231.00;;;;9877694;29;20199;-82
2023/04/13 20:48:05;;;;;;;4.23;1.90;;;;;6.60;100239.00;;;;9832559;29;20905;-81
2023/04/13 20:53:10;;;;;;;8.43;2.50;;;;;6.50;100244.00;;;;9837159;29;20233;-81
2023/04/13 20:58:12;;;;;;;7.47;2.60;;;;;6.60;100244.00;;;;9887996;29;20275;-82
2023/04/13 21:03:14;;;;;;;7.67;2.27;;;;;6.60;100248.00;;;;9832469;30;20265;-82
2023/04/13 21:08:16;;;;;;;10.33;2.93;;;;;6.60;100248.00;;;;9909538;29;20234;-82
2023/04/13 21:13:18;;;;;;;7.37;2.50;;;;;6.60;100251.00;;;;9900762;29;20215;-82
2023/04/13 21:18:20;;;;;;;12.40;2.83;;;;;6.50;100252.00;;;;9870185;29;20239;-81
2023/04/13 21:23:22;;;;;;;8.53;3.17;;;;;6.40;100255.00;;;;9901158;29;20212;-80
2023/04/13 21:28:24;;;;;;;6.43;2.43;;;;;6.40;100251.00;;;;9876649;29;20212;-81
2023/04/13 21:33:26;;;;;;;7.53;2.70;;;;;6.40;100249.00;;;;9848392;30;20222;-81
2023/04/13 21:38:29;;;;;;;7.73;2.60;;;;;6.30;100245.00;;;;9833419;30;20204;-80
2023/04/13 21:43:30;;;;;;;7.37;3.07;;;;;6.20;100248.00;;;;9854637;29;20211;-81
2023/04/13 21:48:33;;;;;;;6.37;2.77;;;;;6.10;100253.00;;;;9853762;29;20211;-82
2023/04/13 21:53:35;;;;;;;8.00;2.80;;;;;6.00;100253.00;;;;9845844;29;20255;-81
2023/04/13 21:58:42;;;;;;;7.90;2.60;;;;;5.90;100248.00;;;;9838435;29;20239;-81
2023/04/13 22:03:46;;;;;;;9.33;3.00;;;;;5.90;100260.00;;;;9831435;30;20218;-81
2023/04/13 22:08:48;;;;;;;7.03;2.50;;;;;5.90;100259.00;;;;9903434;29;20298;-81
2023/04/13 22:13:50;;;;;;;11.17;2.80;;;;;5.90;100260.00;;;;9851999;29;20234;-80
2023/04/13 22:18:52;;;;;;;9.23;2.80;;;;;5.80;100256.00;;;;9849182;29;20211;-81
2023/04/13 22:23:54;;;;;;;6.30;2.80;;;;;5.70;100256.00;;;;9871540;29;20220;-81
2023/04/13 22:28:56;;;;;;;7.13;3.30;;;;;5.60;100264.00;;;;9854162;29;20683;-82
2023/04/13 22:33:58;;;;;;;8.10;3.03;;;;;5.50;100259.00;;;;9852857;29;20237;-81
2023/04/13 22:39:00;;;;;;;9.77;2.63;;;;;5.40;100255.00;;;;9866912;29;20210;-81
2023/04/13 22:44:03;;;;;;;6.73;2.33;;;;;5.30;100261.00;;;;9862757;29;20679;-82
2023/04/13 22:49:05;;;;;;;10.80;2.80;;;;;5.30;100248.00;;;;9867574;29;20203;-81
2023/04/13 22:54:07;;;;;;;7.23;2.83;;;;;5.40;100253.00;;;;9875170;29;20231;-80
2023/04/13 22:59:09;;;;;;;6.33;3.07;;;;;5.30;100260.00;;;;9883623;29;20298;-81
2023/04/13 23:04:11;;;;;;;10.23;3.07;;;;;5.20;100256.00;;;;9815067;30;20235;-81
2023/04/13 23:09:16;;;;;;;6.53;2.23;;;;;5.20;100258.00;;;;9862558;29;20234;-81
2023/04/13 23:14:19;;;;;;;9.07;2.17;;;;;5.20;100261.00;;;;9864651;29;20754;-80
2023/04/13 23:19:21;;;;;;;5.43;2.27;;;;;5.20;100264.00;;;;9879946;29;20203;-81
2023/04/13 23:24:23;;;;;;;6.77;2.20;;;;;5.20;100262.00;;;;9849796;29;20243;-81
2023/04/13 23:29:25;;;;;;;4.63;2.40;;;;;5.10;100257.00;;;;9862788;29;20735;-81
2023/04/13 23:34:27;;;;;;;5.70;2.00;;;;;5.10;100254.00;;;;9852099;30;20251;-81
2023/04/13 23:39:29;;;;;;;6.77;1.60;;;;;5.00;100258.00;;;;9849559;29;20359;-80
2023/04/13 23:44:31;;;;;;;6.93;1.80;;;;;5.10;100270.00;;;;9862101;29;20199;-81
2023/04/13 23:49:33;;;;;;;3.67;2.33;;;;;5.10;100259.00;;;;9881613;29;20199;-81
2023/04/13 23:54:35;;;;;;;6.23;2.03;;;;;5.00;100258.00;;;;9825234;29;20313;-80
2023/04/13 23:59:37;;;;;;;4.43;1.63;;;;;4.90;100259.00;;;;9841191;30;20224;-80
